Terminal Aerodrome Forecast
Issued by NWS

Home | Current Version | Previous Version | Text Only | Print | Product List | Glossary On
Versions: 1 2 3 4 5 6 7 8 9 10 11 12 13 14
772
FTUS45 KRIW 222320
TAFCPR
TAF
KCPR 222320Z 2300/2324 20011KT P6SM VCSH SCT100
      TEMPO 2301/2302 24020G30KT
     FM230600 28012KT P6SM SCT100
     FM231000 33006KT P6SM SKC
     FM232000 24011KT P6SM SKC=

USA.gov is the U.S. government's official web portal to all federal, state and local government web resources and services.